Pagina principală
METAR-TAF:

METAR-TAF

Aeroporturi :

Bleibler Ranch Aerodrome

Clinton, Columbia Britanică, Canada

Latitudine: 51-15-59N, longitudine: 121-41-05W, elevație: 1126 m

Observații meteo curente

Raportul a fost făcut în urmă cu 45 de minute, la 21:00 UTC
Vânt 10 kt de la Sud/Sud-est cu rafale de până la 18 kt
Temperatură 20°C
Umiditate 37%
Presiune 1010 hPa
Vizibilitate: 14.5 km
Total acoperit la o înălțime de 8100 picior

METAR: CYIN 222100Z AUTO 16010G18KT 9SM OVC081 20/05 A2983 RMK SLP088 DENSITY ALT 5300FT

Ora: 14:45 (21:45 UTC)


TAF: lipsă

Observații și prognoze meteo pentru peste 4.000 de aeroporturi (rapoarte METAR și TAF).

Stațiile disponibile sunt reprezentate pe hartă prin puncte galbene și roșii.

Țineți indicatorul mouse-ului pe punctul dorit pentru a vedea denumirea stației.

Apoi, faceți clic pentru a vedea observațiile și prognozele meteorologice.

Pentru a schimba harta: Pentru mărire, faceți clic pe butoanele verzi cu cruce neagră; pentru micșorare, pe butonul verde cu o liniuță; pentru hărți învecinate, pe săgețile verzi.


METAR-TAF: